Time;durP1;ratioP1;P1;durP2;ratioP2;P2;SDS_P1;SDS_P2;PMS_P1;PMS_P2;Temp;Humidity;BMP_temperature;BMP_pressure;BME280_temperature;BME280_humidity;BME280_pressure;Samples;Min_cycle;Max_cycle;Signal;HPM_P1;HPM_P2
2022/10/25 00:01:32;;;;;;;68.07;45.12;;;;;;;11.04;100.00;100236.42;1723705;82;21072;-66
2022/10/25 00:03:59;;;;;;;67.55;41.63;;;;;;;11.08;100.00;100229.66;1696718;83;21611;-65
2022/10/25 00:06:26;;;;;;;67.67;42.70;;;;;;;10.96;100.00;100226.17;1723515;83;21117;-65
2022/10/25 00:08:53;;;;;;;61.45;38.90;;;;;;;10.90;100.00;100217.17;1723526;83;21111;-66
2022/10/25 00:11:28;;;;;;;51.65;33.78;;;;;;;10.97;100.00;100213.39;1723395;83;21072;-65
2022/10/25 00:13:57;;;;;;;66.15;39.55;;;;;;;11.00;100.00;100215.93;1731763;82;20993;-65
2022/10/25 00:16:30;;;;;;;55.15;34.27;;;;;;;11.00;100.00;100202.75;1732564;82;21013;-66
2022/10/25 00:18:57;;;;;;;49.53;31.68;;;;;;;11.07;100.00;100204.70;1732350;82;21282;-65
2022/10/25 00:21:25;;;;;;;60.67;36.68;;;;;;;11.16;100.00;100212.70;1732288;82;21521;-67
2022/10/25 00:23:52;;;;;;;57.08;35.38;;;;;;;11.13;100.00;100200.06;1732597;82;21186;-66
2022/10/25 00:26:19;;;;;;;57.50;36.40;;;;;;;11.14;100.00;100195.64;1732404;82;22215;-65
2022/10/25 00:28:45;;;;;;;55.23;36.25;;;;;;;11.11;100.00;100191.35;1732795;82;21679;-66
2022/10/25 00:31:14;;;;;;;62.80;38.35;;;;;;;11.06;100.00;100186.69;1732439;82;21204;-65
2022/10/25 00:33:42;;;;;;;63.90;37.75;;;;;;;11.08;100.00;100187.50;1732357;82;21088;-65
2022/10/25 00:36:18;;;;;;;56.55;35.45;;;;;;;11.02;100.00;100187.75;1732130;82;21640;-67
2022/10/25 00:38:45;;;;;;;58.92;35.17;;;;;;;10.95;100.00;100194.17;1730869;82;21075;-68
2022/10/25 00:41:14;;;;;;;60.67;38.17;;;;;;;11.08;100.00;100187.50;1732140;82;21143;-66
2022/10/25 00:43:50;;;;;;;48.87;32.48;;;;;;;10.99;100.00;100185.20;1731301;82;21866;-66
2022/10/25 00:46:22;;;;;;;49.95;32.83;;;;;;;10.93;100.00;100176.23;1725895;83;21074;-66
2022/10/25 00:49:06;;;;;;;50.50;32.08;;;;;;;11.07;100.00;100180.52;1726746;82;21590;-65
2022/10/25 00:51:49;;;;;;;45.23;29.77;;;;;;;11.09;100.00;100179.16;1726515;82;21094;-66
2022/10/25 00:54:22;;;;;;;46.15;28.40;;;;;;;10.88;100.00;100187.38;1726853;83;21046;-66
2022/10/25 00:56:50;;;;;;;54.77;34.23;;;;;;;10.99;100.00;100185.20;1726285;83;21199;-67
2022/10/25 00:59:20;;;;;;;52.17;32.40;;;;;;;10.97;100.00;100187.04;1726384;83;21046;-66
2022/10/25 01:01:46;;;;;;;53.57;33.97;;;;;;;10.97;100.00;100187.04;1726692;81;21061;-66
2022/10/25 01:04:15;;;;;;;51.40;32.05;;;;;;;10.90;100.00;100187.76;1726557;83;21046;-66
2022/10/25 01:06:46;;;;;;;46.63;31.30;;;;;;;10.99;100.00;100181.72;1726572;83;21308;-65
2022/10/25 01:09:24;;;;;;;55.17;33.53;;;;;;;11.10;100.00;100167.21;1726500;83;21281;-66
2022/10/25 01:11:51;;;;;;;56.85;33.50;;;;;;;11.08;100.00;100165.09;1726489;83;21073;-66
2022/10/25 01:14:17;;;;;;;46.58;30.55;;;;;;;11.09;100.00;100162.87;1720451;83;21649;-65
2022/10/25 01:17:14;;;;;;;47.05;31.17;;;;;;;11.01;100.00;100164.93;1720421;83;21072;-64
2022/10/25 01:20:33;;;;;;;46.98;29.57;;;;;;;10.96;100.00;100160.30;1720141;83;21649;-66
2022/10/25 01:23:36;;;;;;;51.77;31.90;;;;;;;10.89;100.00;100155.72;1720257;83;21102;-65
2022/10/25 01:26:21;;;;;;;;;;;;;;;10.87;100.00;100143.53;1722745;83;21587;-65
2022/10/25 01:29:08;;;;;;;54.18;32.78;;;;;;;10.93;100.00;100144.62;1719608;83;20236;-67
2022/10/25 01:32:03;;;;;;;38.63;26.12;;;;;;;10.89;100.00;100134.64;1720229;83;21551;-66
2022/10/25 01:34:38;;;;;;;49.42;32.10;;;;;;;10.86;100.00;100129.50;1670387;85;21155;-64
2022/10/25 01:37:31;;;;;;;49.60;32.45;;;;;;;10.80;100.00;100140.27;1670666;85;21770;-65
2022/10/25 01:40:10;;;;;;;45.98;31.60;;;;;;;10.81;100.00;100138.48;1698606;83;21087;-65
2022/10/25 01:43:05;;;;;;;41.70;26.40;;;;;;;10.80;100.00;100138.09;1720091;82;21126;-65
2022/10/25 01:45:42;;;;;;;40.30;25.62;;;;;;;10.84;100.00;100141.87;1723718;83;21060;-66
2022/10/25 01:48:24;;;;;;;55.65;36.05;;;;;;;10.77;100.00;100136.91;1723653;82;21598;-65
2022/10/25 01:50:52;;;;;;;60.70;37.15;;;;;;;10.92;100.00;100131.03;1723889;83;21261;-66
2022/10/25 01:53:18;;;;;;;62.50;37.00;;;;;;;10.89;100.00;100125.89;1723514;83;21081;-66
2022/10/25 01:55:54;;;;;;;52.05;32.63;;;;;;;10.79;100.00;100132.41;1723645;82;21052;-65
2022/10/25 01:58:51;;;;;;;55.35;35.45;;;;;;;10.89;100.00;100131.16;1723877;83;21072;-65
2022/10/25 02:01:39;;;;;;;50.43;32.10;;;;;;;10.77;100.00;100129.85;1723490;81;21070;-65
2022/10/25 02:04:13;;;;;;;42.65;26.25;;;;;;;10.78;100.00;100125.44;1723657;83;21168;-66
2022/10/25 02:07:03;;;;;;;51.08;32.25;;;;;;;10.75;100.00;100129.52;1707742;83;21063;-66
2022/10/25 02:10:00;;;;;;;54.10;33.63;;;;;;;10.84;100.00;100119.48;1708327;84;21101;-66
2022/10/25 02:12:32;;;;;;;54.38;35.08;;;;;;;10.82;100.00;100121.77;1708404;83;21106;-65
2022/10/25 02:15:14;;;;;;;53.35;33.13;;;;;;;10.71;100.00;100125.66;1712644;81;21110;-66
2022/10/25 02:17:51;;;;;;;43.35;29.27;;;;;;;10.73;100.00;100119.48;1711164;82;21015;-65
2022/10/25 02:20:18;;;;;;;45.70;29.90;;;;;;;10.66;100.00;100122.34;1711184;82;21585;-64
2022/10/25 02:22:46;;;;;;;47.20;29.60;;;;;;;10.62;100.00;100126.00;1710732;83;21081;-66
2022/10/25 02:25:12;;;;;;;48.35;29.67;;;;;;;10.45;100.00;100131.90;1710881;82;21110;-65
2022/10/25 02:27:39;;;;;;;48.17;30.12;;;;;;;10.46;100.00;100128.34;1710680;83;21089;-66
2022/10/25 02:30:07;;;;;;;52.93;33.30;;;;;;;10.34;100.00;100120.05;1710916;83;21128;-66
2022/10/25 02:32:34;;;;;;;54.60;33.28;;;;;;;10.27;100.00;100116.27;1710440;83;21103;-65
2022/10/25 02:35:03;;;;;;;54.65;36.35;;;;;;;10.04;100.00;100117.09;1742847;81;21106;-67
2022/10/25 02:37:31;;;;;;;51.35;34.40;;;;;;;10.07;100.00;100114.80;1710925;82;21118;-66
2022/10/25 02:39:57;;;;;;;49.98;32.85;;;;;;;10.11;100.00;100116.42;1710827;82;21110;-65
2022/10/25 02:42:24;;;;;;;50.50;32.90;;;;;;;10.06;100.00;100113.10;1711018;82;21235;-65
2022/10/25 02:44:50;;;;;;;59.50;35.38;;;;;;;10.10;100.00;100126.56;1742248;81;21561;-65
2022/10/25 02:47:17;;;;;;;52.65;34.08;;;;;;;10.15;100.00;100131.20;1756529;81;21047;-65
2022/10/25 02:49:44;;;;;;;55.20;36.63;;;;;;;9.99;100.00;100130.02;1756323;81;21069;-68
2022/10/25 02:52:11;;;;;;;54.20;35.43;;;;;;;9.92;100.00;100127.20;1756516;81;22003;-65
2022/10/25 02:54:38;;;;;;;52.98;34.50;;;;;;;10.01;100.00;100130.83;1756385;81;21540;-66
2022/10/25 02:57:05;;;;;;;51.02;33.15;;;;;;;10.08;100.00;100131.02;1756672;81;21519;-65
2022/10/25 02:59:33;;;;;;;46.37;29.05;;;;;;;10.22;100.00;100126.58;1756555;81;21039;-66
2022/10/25 03:01:59;;;;;;;51.83;33.35;;;;;;;10.02;100.00;100127.27;1731951;80;21056;-64
2022/10/25 03:04:26;;;;;;;51.23;32.70;;;;;;;9.96;100.00;100128.36;1726322;83;21064;-65
2022/10/25 03:06:53;;;;;;;54.58;32.35;;;;;;;10.02;100.00;100126.80;1726493;83;21273;-66
2022/10/25 03:09:20;;;;;;;50.05;32.13;;;;;;;10.10;100.00;100127.88;1726352;83;21515;-67
2022/10/25 03:11:46;;;;;;;38.02;25.72;;;;;;;10.03;100.00;100129.86;1726327;83;21104;-66
2022/10/25 03:14:15;;;;;;;50.10;33.05;;;;;;;9.90;100.00;100135.59;1730231;82;21553;-65
2022/10/25 03:16:42;;;;;;;52.80;34.65;;;;;;;10.01;100.00;100134.77;1732179;82;21044;-65
2022/10/25 03:19:09;;;;;;;54.73;34.40;;;;;;;9.91;100.00;100133.35;1732290;82;22083;-66
2022/10/25 03:21:36;;;;;;;57.53;35.30;;;;;;;9.87;100.00;100134.78;1732203;82;21064;-65
2022/10/25 03:24:03;;;;;;;54.93;35.08;;;;;;;9.83;100.00;100131.84;1732538;82;21093;-66
2022/10/25 03:26:30;;;;;;;57.50;36.38;;;;;;;9.97;100.00;100134.00;1732335;82;21056;-67
2022/10/25 03:28:57;;;;;;;57.38;37.75;;;;;;;9.94;100.00;100138.50;1732398;82;21095;-67
2022/10/25 03:31:24;;;;;;;57.83;36.28;;;;;;;9.91;100.00;100135.98;1732363;82;21268;-67
2022/10/25 03:33:50;;;;;;;56.68;36.10;;;;;;;9.75;100.00;100131.70;1731967;82;21040;-66
2022/10/25 03:36:17;;;;;;;56.00;35.90;;;;;;;9.74;100.00;100133.47;1732416;82;22191;-66
2022/10/25 03:38:43;;;;;;;55.03;34.83;;;;;;;9.78;100.00;100131.15;1731935;82;21067;-66
2022/10/25 03:41:10;;;;;;;58.90;36.13;;;;;;;9.79;100.00;100126.28;1732109;82;21068;-67
2022/10/25 03:43:37;;;;;;;59.13;34.85;;;;;;;9.50;100.00;100126.38;1731114;82;21144;-66
2022/10/25 03:46:04;;;;;;;56.13;33.83;;;;;;;9.50;100.00;100129.02;1726321;83;21125;-67
2022/10/25 03:48:30;;;;;;;59.48;35.73;;;;;;;9.39;100.00;100131.55;1726670;83;21522;-66
2022/10/25 03:50:57;;;;;;;50.75;32.05;;;;;;;9.42;100.00;100119.61;1726873;83;21481;-67
2022/10/25 03:53:24;;;;;;;48.25;29.50;;;;;;;9.44;100.00;100124.37;1726413;83;21078;-66
2022/10/25 03:55:50;;;;;;;53.40;34.88;;;;;;;9.34;100.00;100124.27;1726464;83;21166;-64
2022/10/25 03:58:18;;;;;;;53.02;32.50;;;;;;;9.33;100.00;100121.22;1726594;81;21019;-65
2022/10/25 04:00:45;;;;;;;57.27;31.50;;;;;;;9.25;100.00;100115.37;1726523;81;21611;-66
2022/10/25 04:03:11;;;;;;;47.95;30.62;;;;;;;9.21;100.00;100115.05;1727001;83;21149;-66
2022/10/25 04:05:37;;;;;;;77.00;40.17;;;;;;;9.27;100.00;100113.98;1726808;83;21098;-66
2022/10/25 04:08:05;;;;;;;74.42;40.60;;;;;;;9.10;100.00;100114.53;1726413;82;21890;-65
2022/10/25 04:10:32;;;;;;;62.73;37.53;;;;;;;9.13;100.00;100110.48;1726451;82;21085;-67
2022/10/25 04:12:59;;;;;;;68.47;40.85;;;;;;;9.14;100.00;100107.81;1703925;83;21050;-65
2022/10/25 04:15:25;;;;;;;74.75;43.20;;;;;;;9.15;100.00;100101.64;1726604;83;21071;-65
2022/10/25 04:17:52;;;;;;;64.92;39.58;;;;;;;9.03;100.00;100102.88;1726554;83;21141;-64
2022/10/25 04:20:20;;;;;;;61.85;36.10;;;;;;;8.99;100.00;100098.63;1726705;83;21110;-66
2022/10/25 04:22:53;;;;;;;70.57;41.13;;;;;;;9.27;100.00;100104.36;1726373;83;21035;-66
2022/10/25 04:25:20;;;;;;;64.12;39.23;;;;;;;9.48;100.00;100103.23;1727256;82;21125;-65
2022/10/25 04:27:47;;;;;;;69.40;42.00;;;;;;;9.40;100.00;100095.14;1732201;82;21066;-66
2022/10/25 04:30:15;;;;;;;66.07;41.15;;;;;;;9.35;100.00;100093.12;1732138;82;21101;-67
2022/10/25 04:32:42;;;;;;;57.73;34.60;;;;;;;9.57;100.00;100091.09;1732141;82;21148;-65
2022/10/25 04:35:09;;;;;;;61.53;36.73;;;;;;;9.52;100.00;100091.70;1732494;82;21129;-66
2022/10/25 04:37:36;;;;;;;58.87;35.88;;;;;;;9.51;100.00;100086.06;1732108;82;21549;-66
2022/10/25 04:40:03;;;;;;;57.55;36.35;;;;;;;9.65;100.00;100091.70;1732484;82;21090;-66
2022/10/25 04:42:33;;;;;;;52.65;31.45;;;;;;;9.62;100.00;100092.67;1732308;82;21093;-66
2022/10/25 04:45:00;;;;;;;45.58;29.57;;;;;;;9.71;100.00;100087.56;1754952;81;21231;-67
2022/10/25 04:47:31;;;;;;;44.53;29.60;;;;;;;9.85;100.00;100073.94;1762639;81;21547;-65
2022/10/25 04:49:57;;;;;;;;;;;;;;;10.03;100.00;100085.56;1765392;81;21081;-66
2022/10/25 04:52:24;;;;;;;54.80;34.30;;;;;;;9.96;100.00;100085.38;1762751;81;20205;-65
2022/10/25 04:54:51;;;;;;;65.47;39.63;;;;;;;10.10;100.00;100085.77;1762337;81;21570;-66
2022/10/25 04:57:17;;;;;;;69.92;42.20;;;;;;;10.12;100.00;100078.66;1762913;81;21777;-66
2022/10/25 04:59:43;;;;;;;60.30;37.38;;;;;;;10.18;100.00;100069.70;1762285;80;21876;-65
2022/10/25 05:02:11;;;;;;;68.52;41.33;;;;;;;10.25;100.00;100065.46;1762866;81;21030;-65
2022/10/25 05:04:37;;;;;;;64.77;39.67;;;;;;;10.49;100.00;100066.84;1762762;81;21062;-66
2022/10/25 05:07:04;;;;;;;59.48;36.83;;;;;;;10.60;100.00;100069.04;1762526;81;21042;-66
2022/10/25 05:09:31;;;;;;;65.08;38.92;;;;;;;10.68;100.00;100069.16;1762478;81;21751;-67
2022/10/25 05:11:59;;;;;;;67.97;39.45;;;;;;;10.88;100.00;100070.14;1762415;81;21565;-65
2022/10/25 05:14:26;;;;;;;65.62;40.63;;;;;;;10.67;100.00;100064.82;1758189;81;21554;-67
2022/10/25 05:16:53;;;;;;;67.45;40.75;;;;;;;10.67;100.00;100068.77;1753628;81;21062;-66
2022/10/25 05:19:20;;;;;;;61.60;38.53;;;;;;;10.89;100.00;100070.56;1753850;81;21046;-67
2022/10/25 05:21:47;;;;;;;50.48;32.42;;;;;;;10.92;100.00;100075.70;1753937;81;21275;-66
2022/10/25 05:24:14;;;;;;;65.32;40.52;;;;;;;10.91;100.00;100076.62;1753588;81;21034;-66
2022/10/25 05:26:41;;;;;;;53.78;35.52;;;;;;;10.92;100.00;100073.06;1753635;81;21042;-66
2022/10/25 05:29:10;;;;;;;63.20;40.48;;;;;;;11.08;100.00;100076.80;1753815;81;21030;-67
2022/10/25 05:31:38;;;;;;;63.68;37.13;;;;;;;11.04;100.00;100075.23;1702689;81;21042;-67
2022/10/25 05:34:05;;;;;;;52.70;35.40;;;;;;;11.00;100.00;100075.42;1726922;81;21096;-67
2022/10/25 05:36:32;;;;;;;56.60;36.35;;;;;;;11.01;100.00;100074.48;1753451;81;21070;-66
2022/10/25 05:39:00;;;;;;;49.48;32.33;;;;;;;11.31;100.00;100072.39;1753323;81;21082;-67
2022/10/25 05:41:27;;;;;;;52.83;34.80;;;;;;;11.31;100.00;100077.66;1753589;81;21046;-68
2022/10/25 05:43:53;;;;;;;54.88;37.40;;;;;;;11.47;100.00;100082.70;1744759;81;21119;-68
2022/10/25 05:46:21;;;;;;;56.50;37.60;;;;;;;11.43;100.00;100077.14;1723602;82;21258;-67
2022/10/25 05:48:50;;;;;;;55.98;36.77;;;;;;;11.64;100.00;100074.53;1723637;83;21564;-68
2022/10/25 05:51:25;;;;;;;51.35;33.63;;;;;;;11.71;100.00;100077.30;1723557;82;21032;-68
2022/10/25 05:53:54;;;;;;;48.63;34.23;;;;;;;11.55;100.00;100080.61;1723440;83;21002;-66
2022/10/25 05:56:23;;;;;;;48.63;33.25;;;;;;;11.47;100.00;100085.33;1723657;83;21069;-67
2022/10/25 05:58:51;;;;;;;46.00;30.05;;;;;;;11.54;100.00;100085.47;1723310;83;21996;-67
2022/10/25 06:01:20;;;;;;;52.27;33.25;;;;;;;11.59;100.00;100085.75;1723474;82;21045;-66
2022/10/25 06:03:48;;;;;;;39.67;26.00;;;;;;;11.76;100.00;100088.55;1723635;83;21695;-66
2022/10/25 06:06:14;;;;;;;49.60;33.48;;;;;;;11.67;100.00;100073.95;1723429;83;21085;-66
2022/10/25 06:08:42;;;;;;;52.00;32.93;;;;;;;11.76;100.00;100080.16;1723464;82;21129;-67
2022/10/25 06:11:13;;;;;;;39.63;26.33;;;;;;;11.93;100.00;100082.09;1723713;83;21614;-67
2022/10/25 06:13:40;;;;;;;40.40;27.00;;;;;;;12.11;100.00;100074.31;1723532;81;21048;-68
2022/10/25 06:16:12;;;;;;;38.42;26.40;;;;;;;12.27;100.00;100081.09;1723808;83;21061;-66
2022/10/25 06:18:40;;;;;;;44.95;27.52;;;;;;;12.31;100.00;100083.52;1723873;82;21556;-67
2022/10/25 06:21:12;;;;;;;40.35;28.65;;;;;;;12.23;100.00;100083.47;1723602;83;21084;-67
2022/10/25 06:23:40;;;;;;;54.60;33.78;;;;;;;12.34;100.00;100083.84;1722845;83;21151;-68
2022/10/25 06:26:18;;;;;;;50.00;32.00;;;;;;;12.37;100.00;100088.51;1723771;82;20982;-68
2022/10/25 06:28:47;;;;;;;52.33;33.60;;;;;;;12.29;100.00;100091.97;1723669;81;21049;-66
2022/10/25 06:31:15;;;;;;;43.02;27.60;;;;;;;12.30;100.00;100094.14;1690588;84;21069;-67
2022/10/25 06:33:42;;;;;;;47.83;29.18;;;;;;;12.38;100.00;100098.16;1682316;85;21089;-67
2022/10/25 06:36:13;;;;;;;46.23;29.37;;;;;;;12.34;100.00;100095.26;1681978;85;21261;-66
2022/10/25 06:38:40;;;;;;;40.63;27.67;;;;;;;12.23;100.00;100092.23;1681862;85;21097;-68
2022/10/25 06:41:10;;;;;;;36.60;25.62;;;;;;;12.27;100.00;100092.50;1682027;85;21102;-68
2022/10/25 06:43:37;;;;;;;50.77;30.67;;;;;;;12.24;100.00;100089.13;1691425;84;21082;-67
2022/10/25 06:46:09;;;;;;;41.85;27.25;;;;;;;12.27;100.00;100082.41;1682070;85;21108;-68
2022/10/25 06:48:37;;;;;;;41.88;29.55;;;;;;;12.30;100.00;100082.27;1656675;85;22337;-68
2022/10/25 06:51:05;;;;;;;39.78;24.45;;;;;;;12.41;100.00;100079.15;1691447;84;21059;-68
2022/10/25 06:53:31;;;;;;;46.83;30.72;;;;;;;12.48;100.00;100070.02;1681747;85;21110;-66
2022/10/25 06:56:02;;;;;;;35.52;24.65;;;;;;;12.51;100.00;100073.35;1682174;85;21141;-66
2022/10/25 06:58:29;;;;;;;52.27;30.35;;;;;;;12.67;100.00;100072.66;1681842;85;21173;-68
2022/10/25 07:01:12;;;;;;;46.23;30.65;;;;;;;12.76;100.00;100074.87;1681753;83;21105;-67
2022/10/25 07:03:39;;;;;;;47.30;28.85;;;;;;;12.83;100.00;100078.08;1680379;85;21161;-67
2022/10/25 07:06:11;;;;;;;48.78;31.87;;;;;;;12.85;100.00;100066.50;1690944;84;21015;-67
2022/10/25 07:08:41;;;;;;;41.23;30.17;;;;;;;12.86;100.00;100070.00;1681444;85;21050;-67
2022/10/25 07:11:16;;;;;;;45.78;31.37;;;;;;;12.96;100.00;100068.65;1682108;85;21062;-68
2022/10/25 07:13:43;;;;;;;52.13;30.97;;;;;;;13.09;100.00;100061.84;1681190;85;21903;-68
2022/10/25 07:18:45;;;;;;;39.15;25.57;;;;;;;12.69;100.00;100063.73;1881502;75;28070;-67
2022/10/25 07:21:19;;;;;;;38.40;26.95;;;;;;;13.27;100.00;100064.50;1858096;77;21032;-66
2022/10/25 07:23:45;;;;;;;46.02;29.30;;;;;;;13.78;100.00;100062.84;1857987;77;21184;-67
2022/10/25 07:26:20;;;;;;;44.20;27.85;;;;;;;14.24;100.00;100061.77;1858211;77;21058;-66
2022/10/25 07:28:46;;;;;;;40.33;26.65;;;;;;;14.81;100.00;100058.23;1857457;77;21004;-67
2022/10/25 07:31:16;;;;;;;42.25;26.57;;;;;;;15.38;100.00;100050.19;1792160;77;80852;-90
2022/10/25 07:33:50;;;;;;;47.25;26.80;;;;;;;15.76;100.00;100046.64;1781906;80;20998;-88
2022/10/25 07:36:22;;;;;;;35.17;23.42;;;;;;;16.35;100.00;100050.08;1778270;80;21162;-90
2022/10/25 07:38:48;;;;;;;34.85;22.87;;;;;;;16.43;100.00;100044.31;1781630;80;21049;-92
2022/10/25 07:41:15;;;;;;;30.97;22.62;;;;;;;16.50;100.00;100045.62;1781871;80;21009;-88
2022/10/25 07:43:42;;;;;;;37.45;24.45;;;;;;;16.69;100.00;100044.46;1781655;80;21057;-90
2022/10/25 07:46:13;;;;;;;34.75;21.87;;;;;;;16.69;100.00;100052.44;1783980;80;20978;-90
2022/10/25 07:48:40;;;;;;;36.38;22.93;;;;;;;16.68;100.00;100042.73;1782829;80;21148;-89
2022/10/25 07:51:12;;;;;;;45.00;25.15;;;;;;;16.68;100.00;100042.73;1783700;80;21068;-89
2022/10/25 07:53:40;;;;;;;62.93;23.95;;;;;;;16.54;100.00;100044.49;1782195;80;20986;-89
2022/10/25 07:56:13;;;;;;;33.28;22.27;;;;;;;16.47;100.00;100049.81;1782722;80;21014;-89
2022/10/25 07:58:42;;;;;;;40.08;23.90;;;;;;;16.56;100.00;100042.59;1756472;80;20982;-89
2022/10/25 08:01:09;;;;;;;49.67;24.60;;;;;;;16.53;100.00;100037.45;1755282;80;85471;-67
2022/10/25 08:03:36;;;;;;;44.80;24.95;;;;;;;16.51;100.00;100038.50;1730573;82;21044;-67
2022/10/25 08:06:03;;;;;;;45.83;25.02;;;;;;;16.53;100.00;100029.47;1730411;82;21543;-68
2022/10/25 08:08:30;;;;;;;61.85;26.37;;;;;;;16.55;100.00;100027.58;1730612;82;21131;-66
2022/10/25 08:10:58;;;;;;;39.67;24.60;;;;;;;16.62;100.00;100019.22;1730884;82;21087;-66
2022/10/25 08:13:25;;;;;;;41.18;25.48;;;;;;;16.71;100.00;100018.62;1730492;82;21484;-66
2022/10/25 08:15:54;;;;;;;41.33;23.62;;;;;;;16.78;100.00;100017.28;1730607;82;21071;-67
2022/10/25 08:18:22;;;;;;;35.95;22.27;;;;;;;16.86;100.00;100015.47;1698374;84;22188;-67
2022/10/25 08:20:48;;;;;;;36.60;20.57;;;;;;;16.93;100.00;100011.00;1693758;84;21090;-68
2022/10/25 08:23:17;;;;;;;36.63;21.62;;;;;;;17.08;100.00;100010.95;1693895;84;21028;-66
2022/10/25 08:25:44;;;;;;;35.13;20.48;;;;;;;17.22;100.00;100008.22;1693848;84;21277;-67
2022/10/25 08:28:12;;;;;;;31.57;20.97;;;;;;;17.35;100.00;100007.78;1693660;84;21048;-67
2022/10/25 08:30:40;;;;;;;43.63;21.07;;;;;;;17.58;100.00;100005.38;1713979;83;21053;-66
2022/10/25 08:33:07;;;;;;;35.95;18.73;;;;;;;17.86;100.00;100003.52;1722095;83;21088;-67
2022/10/25 08:35:35;;;;;;;33.20;19.77;;;;;;;17.69;100.00;100008.16;1722073;83;21092;-66
2022/10/25 08:38:03;;;;;;;35.17;19.77;;;;;;;17.55;100.00;100005.11;1722310;83;21107;-67
2022/10/25 08:41:23;;;;;;;35.98;19.57;;;;;;;17.56;100.00;100001.96;1722626;83;21021;-67
2022/10/25 08:44:04;;;;;;;25.27;17.37;;;;;;;17.67;100.00;99995.42;1727196;82;21553;-67
2022/10/25 08:46:39;;;;;;;30.55;18.48;;;;;;;17.54;100.00;100005.20;1720611;82;21068;-66
2022/10/25 08:49:30;;;;;;;27.37;17.12;;;;;;;17.62;100.00;99997.53;1749956;82;21113;-67
2022/10/25 08:51:57;;;;;;;26.02;17.80;;;;;;;17.40;100.00;99999.00;1744516;82;21089;-66
2022/10/25 08:54:36;;;;;;;26.65;15.78;;;;;;;17.50;100.00;100004.55;1743990;82;21085;-66
2022/10/25 08:57:27;;;;;;;29.02;17.57;;;;;;;17.39;100.00;99998.64;1750119;82;21057;-67
2022/10/25 09:00:00;;;;;;;28.23;17.27;;;;;;;17.31;100.00;100000.95;1750202;80;21545;-67
2022/10/25 09:02:56;;;;;;;30.48;16.62;;;;;;;17.33;100.00;100001.70;1743677;81;21537;-66
2022/10/25 09:05:44;;;;;;;25.68;16.00;;;;;;;17.30;100.00;99992.61;1749922;82;21696;-68
2022/10/25 09:08:57;;;;;;;20.10;13.88;;;;;;;17.29;100.00;99995.36;1744105;82;21033;-67
2022/10/25 09:11:50;;;;;;;23.95;14.43;;;;;;;17.21;99.98;99994.55;1750304;82;24016;-67
2022/10/25 09:14:51;;;;;;;28.60;13.98;;;;;;;16.99;99.30;99997.28;1744174;82;21026;-67
2022/10/25 09:17:21;;;;;;;18.90;13.83;;;;;;;16.88;100.00;99995.80;1744071;82;21557;-67
2022/10/25 09:20:07;;;;;;;20.60;13.25;;;;;;;16.75;100.00;99990.89;1749640;82;21326;-66
2022/10/25 09:22:48;;;;;;;24.60;13.98;;;;;;;16.75;100.00;99985.58;1714688;82;21073;-67
2022/10/25 09:25:47;;;;;;;21.85;13.88;;;;;;;16.70;100.00;99987.66;1749448;82;21108;-66
2022/10/25 09:28:20;;;;;;;23.70;13.53;;;;;;;16.65;100.00;99987.11;1730534;82;21052;-67
2022/10/25 09:30:46;;;;;;;23.83;13.75;;;;;;;16.46;100.00;99990.95;1725749;81;21133;-67
2022/10/25 09:33:16;;;;;;;23.38;14.53;;;;;;;16.20;100.00;99983.78;1726455;82;21557;-68
2022/10/25 09:35:47;;;;;;;24.35;14.47;;;;;;;16.22;100.00;99981.86;1726373;83;21407;-66
2022/10/25 09:38:43;;;;;;;24.27;15.63;;;;;;;16.20;100.00;99981.13;1726802;83;21058;-67
2022/10/25 09:41:22;;;;;;;26.57;13.78;;;;;;;16.08;100.00;99980.94;1660484;85;21064;-67
2022/10/25 09:43:59;;;;;;;20.95;13.62;;;;;;;16.17;100.00;99972.00;1692653;84;21313;-66
2022/10/25 09:46:46;;;;;;;29.50;15.13;;;;;;;16.44;100.00;99967.59;1692360;84;21118;-67
2022/10/25 09:49:25;;;;;;;31.55;16.60;;;;;;;16.48;100.00;99962.95;1691970;84;21062;-67
2022/10/25 09:52:16;;;;;;;38.20;16.75;;;;;;;16.51;100.00;99958.27;1672945;81;21077;-68
2022/10/25 09:54:56;;;;;;;30.15;15.68;;;;;;;16.49;100.00;99965.48;1760044;81;21047;-67
2022/10/25 09:57:22;;;;;;;24.47;15.57;;;;;;;16.36;100.00;99965.44;1758540;81;21084;-68
2022/10/25 09:59:50;;;;;;;28.57;16.00;;;;;;;16.42;100.00;99968.16;1726866;81;21271;-67
2022/10/25 10:02:24;;;;;;;25.82;15.55;;;;;;;16.29;100.00;99966.78;1696063;84;21054;-67
2022/10/25 10:04:51;;;;;;;21.87;13.88;;;;;;;16.39;100.00;99965.71;1722176;83;21104;-68
2022/10/25 10:07:29;;;;;;;24.37;13.70;;;;;;;16.18;100.00;99967.93;1726856;83;21407;-66
2022/10/25 10:10:00;;;;;;;22.75;14.90;;;;;;;16.05;100.00;99962.52;1695932;84;21114;-66
2022/10/25 10:12:39;;;;;;;32.73;15.90;;;;;;;16.03;100.00;99964.89;1722690;83;21077;-67
2022/10/25 10:15:34;;;;;;;29.25;16.42;;;;;;;16.20;100.00;99966.52;1726400;83;21671;-66
2022/10/25 10:18:30;;;;;;;26.05;14.75;;;;;;;16.19;100.00;99966.12;1696024;84;21055;-67
2022/10/25 10:21:18;;;;;;;29.05;16.02;;;;;;;16.01;100.00;99961.03;1697142;84;21066;-66
2022/10/25 10:23:51;;;;;;;29.07;16.77;;;;;;;15.93;100.00;99961.96;1728846;82;21129;-68
2022/10/25 10:26:36;;;;;;;28.83;15.95;;;;;;;15.87;100.00;99966.31;1729220;82;21695;-67
2022/10/25 10:29:11;;;;;;;27.37;17.07;;;;;;;15.64;100.00;99965.03;1729056;81;21042;-66
2022/10/25 10:31:42;;;;;;;29.37;17.25;;;;;;;15.75;100.00;99969.73;1728737;83;21156;-67
2022/10/25 10:34:32;;;;;;;27.40;17.02;;;;;;;15.79;100.00;99968.13;1728703;83;21549;-67
2022/10/25 10:37:05;;;;;;;;;;;;;;;15.65;100.00;99964.95;1726797;83;21656;-67
2022/10/25 10:39:32;;;;;;;30.17;17.60;;;;;;;15.66;100.00;99965.31;1729003;83;21867;-67
2022/10/25 10:42:10;;;;;;;28.52;17.17;;;;;;;15.71;100.00;99963.30;1729101;83;22259;-68
2022/10/25 10:44:36;;;;;;;31.82;16.80;;;;;;;15.58;100.00;99965.42;1725385;83;21542;-67
2022/10/25 10:47:11;;;;;;;26.40;16.57;;;;;;;15.59;100.00;99959.16;1729239;82;21542;-67
2022/10/25 10:49:40;;;;;;;30.23;17.65;;;;;;;15.61;100.00;99956.78;1728796;83;21059;-67
2022/10/25 10:52:10;;;;;;;26.00;16.90;;;;;;;15.58;100.00;99955.66;1729206;83;21489;-66
2022/10/25 10:54:42;;;;;;;25.43;16.62;;;;;;;15.58;100.00;99950.83;1698539;83;21133;-67
2022/10/25 10:57:14;;;;;;;28.12;16.37;;;;;;;15.65;100.00;99953.48;1728763;82;21046;-67
2022/10/25 10:59:46;;;;;;;25.48;16.00;;;;;;;15.64;100.00;99948.63;1700609;83;21073;-67
2022/10/25 11:02:24;;;;;;;30.80;17.05;;;;;;;15.52;100.00;99948.05;1721276;82;20992;-68
2022/10/25 11:04:53;;;;;;;23.25;15.58;;;;;;;15.64;100.00;99944.64;1716084;83;21110;-67
2022/10/25 11:07:32;;;;;;;24.07;15.70;;;;;;;15.75;100.00;99951.99;1717941;83;21039;-67
2022/10/25 11:10:18;;;;;;;24.02;16.40;;;;;;;15.60;100.00;99945.80;1717519;82;21485;-68
2022/10/25 11:12:45;;;;;;;30.43;16.27;;;;;;;15.46;100.00;99941.33;1717652;83;21047;-68
2022/10/25 11:15:13;;;;;;;25.75;15.98;;;;;;;15.44;100.00;99936.58;1693207;83;21015;-67
2022/10/25 11:17:53;;;;;;;24.47;15.03;;;;;;;15.46;100.00;99936.47;1717545;83;21104;-67
2022/10/25 11:20:44;;;;;;;21.60;16.37;;;;;;;15.30;100.00;99941.39;1717544;83;21008;-66
2022/10/25 11:23:31;;;;;;;30.40;16.30;;;;;;;15.25;100.00;99932.86;1690350;83;21044;-68
2022/10/25 11:26:38;;;;;;;26.40;16.10;;;;;;;15.33;100.00;99930.22;1717627;83;21491;-67
2022/10/25 11:29:16;;;;;;;34.67;17.98;;;;;;;15.38;100.00;99929.46;1718176;82;21419;-67
2022/10/25 11:31:58;;;;;;;28.62;15.65;;;;;;;15.48;100.00;99926.17;1717517;83;21077;-67